Time;durP1;ratioP1;P1;durP2;ratioP2;P2;SDS_P1;SDS_P2;PMS_P1;PMS_P2;Temp;Humidity;BMP_temperature;BMP_pressure;BME280_temperature;BME280_humidity;BME280_pressure;Samples;Min_cycle;Max_cycle;Signal;HPM_P1;HPM_P2
2021/05/15 00:01:50;;;;;;;3.83;1.70;;;16.10;58.70;;;;;;4162270;28;20570;-65
2021/05/15 00:03:52;;;;;;;2.75;1.80;;;16.10;58.80;;;;;;4162304;28;20025;-65
2021/05/15 00:05:54;;;;;;;2.85;1.60;;;16.10;58.90;;;;;;4160865;28;20115;-65
2021/05/15 00:07:59;;;;;;;5.30;2.38;;;16.10;58.80;;;;;;4161954;28;20127;-64
2021/05/15 00:10:01;;;;;;;9.55;2.30;;;16.10;58.70;;;;;;4162490;28;20298;-65
2021/05/15 00:12:04;;;;;;;12.82;2.33;;;16.10;59.00;;;;;;4163421;28;20083;-64
2021/05/15 00:14:06;;;;;;;3.55;2.00;;;16.10;59.30;;;;;;4164646;28;20406;-63
2021/05/15 00:16:08;;;;;;;2.28;1.67;;;16.10;59.40;;;;;;4169000;28;20029;-62
2021/05/15 00:18:10;;;;;;;5.65;2.00;;;16.20;59.50;;;;;;4165837;28;20040;-65
2021/05/15 00:20:15;;;;;;;4.70;1.63;;;16.10;59.60;;;;;;4160905;28;20394;-69
2021/05/15 00:22:19;;;;;;;6.75;1.63;;;16.10;59.70;;;;;;4168436;28;20071;-69
2021/05/15 00:24:21;;;;;;;3.55;1.77;;;16.20;60.00;;;;;;4161907;28;20037;-64
2021/05/15 00:26:23;;;;;;;5.03;1.90;;;16.20;60.00;;;;;;4161458;28;20512;-63
2021/05/15 00:28:26;;;;;;;5.55;2.22;;;16.20;59.90;;;;;;4169435;28;20463;-64
2021/05/15 00:30:28;;;;;;;5.18;1.80;;;16.20;59.80;;;;;;4170431;28;20128;-64
2021/05/15 00:32:30;;;;;;;2.95;1.88;;;16.20;59.70;;;;;;4172061;28;20160;-65
2021/05/15 00:34:32;;;;;;;3.85;1.70;;;16.20;59.50;;;;;;4170286;28;20087;-64
2021/05/15 00:36:34;;;;;;;3.53;1.52;;;16.20;59.30;;;;;;4171104;28;20032;-63
2021/05/15 00:38:36;;;;;;;5.43;1.73;;;16.20;59.00;;;;;;4175500;28;20063;-64
2021/05/15 00:40:39;;;;;;;5.25;1.73;;;16.20;58.90;;;;;;4172694;28;20025;-65
2021/05/15 00:42:41;;;;;;;3.55;2.03;;;16.20;58.80;;;;;;4171855;28;20037;-64
2021/05/15 00:44:46;;;;;;;6.63;2.17;;;16.20;58.80;;;;;;4169718;28;20033;-64
2021/05/15 00:46:48;;;;;;;4.35;1.60;;;16.20;58.80;;;;;;4174673;28;20108;-65
2021/05/15 00:48:50;;;;;;;2.90;1.73;;;16.20;58.80;;;;;;4178315;28;20617;-62
2021/05/15 00:50:53;;;;;;;6.72;1.80;;;16.20;58.80;;;;;;4174636;28;20084;-68
2021/05/15 00:52:57;;;;;;;7.45;2.42;;;16.20;59.80;;;;;;4175014;28;20320;-67
2021/05/15 00:54:59;;;;;;;8.48;2.30;;;16.20;60.10;;;;;;4179913;28;20111;-65
2021/05/15 00:57:02;;;;;;;10.05;2.22;;;16.20;61.50;;;;;;4162291;28;20048;-65
2021/05/15 00:59:05;;;;;;;8.17;2.03;;;16.20;61.80;;;;;;4167370;28;20040;-60
2021/05/15 01:01:07;;;;;;;7.65;1.90;;;16.30;61.90;;;;;;4167838;28;20025;-67
2021/05/15 01:03:10;;;;;;;9.95;2.00;;;16.30;61.80;;;;;;4167614;28;20098;-67
2021/05/15 01:05:13;;;;;;;7.97;2.10;;;16.30;61.40;;;;;;4164505;28;20032;-69
2021/05/15 01:07:15;;;;;;;6.32;2.40;;;16.30;61.00;;;;;;4176146;28;20020;-67
2021/05/15 01:09:18;;;;;;;5.72;1.90;;;16.30;60.60;;;;;;4166966;28;20025;-65
2021/05/15 01:11:21;;;;;;;3.22;1.75;;;16.30;60.60;;;;;;4166242;28;20413;-68
2021/05/15 01:13:31;;;;;;;4.15;1.98;;;16.30;60.50;;;;;;4166108;28;20115;-68
2021/05/15 01:15:35;;;;;;;5.07;1.73;;;16.30;60.30;;;;;;4166119;28;20032;-68
2021/05/15 01:17:38;;;;;;;4.60;1.50;;;16.30;60.10;;;;;;4165543;28;20033;-67
2021/05/15 01:19:40;;;;;;;5.95;1.90;;;16.30;60.00;;;;;;4168185;28;20033;-68
2021/05/15 01:21:43;;;;;;;6.82;2.53;;;16.30;60.00;;;;;;4171595;28;20107;-68
2021/05/15 01:23:45;;;;;;;3.80;1.70;;;16.30;59.90;;;;;;4173900;28;20036;-68
2021/05/15 01:25:48;;;;;;;2.72;1.50;;;16.30;59.90;;;;;;4173392;28;20406;-68
2021/05/15 01:27:50;;;;;;;3.65;1.42;;;16.30;59.80;;;;;;4170458;28;20064;-70
2021/05/15 01:29:52;;;;;;;3.80;1.55;;;16.30;59.80;;;;;;4175211;28;20060;-70
2021/05/15 01:31:54;;;;;;;4.43;1.77;;;16.30;59.70;;;;;;4168361;28;20044;-70
2021/05/15 01:33:57;;;;;;;2.97;1.55;;;16.30;59.60;;;;;;4168804;28;20402;-67
2021/05/15 01:35:59;;;;;;;2.30;1.58;;;16.30;59.70;;;;;;4168005;28;20167;-70
2021/05/15 01:38:01;;;;;;;4.53;1.85;;;16.30;59.60;;;;;;4165829;28;20572;-71
2021/05/15 01:40:05;;;;;;;2.92;1.50;;;16.30;59.60;;;;;;4171810;28;20405;-69
2021/05/15 01:42:07;;;;;;;3.83;1.58;;;16.30;59.60;;;;;;4170067;28;20075;-70
2021/05/15 01:44:11;;;;;;;3.58;1.60;;;16.30;59.70;;;;;;4174097;28;20115;-69
2021/05/15 01:46:14;;;;;;;3.40;1.77;;;16.30;59.70;;;;;;4172009;28;20065;-70
2021/05/15 01:48:18;;;;;;;5.72;1.70;;;16.30;59.70;;;;;;4168108;28;20656;-70
2021/05/15 01:50:20;;;;;;;2.53;1.60;;;16.30;59.70;;;;;;4167223;28;20064;-70
2021/05/15 01:52:22;;;;;;;3.92;1.67;;;16.30;59.60;;;;;;4179380;28;20021;-69
2021/05/15 01:54:24;;;;;;;2.05;1.40;;;16.30;59.40;;;;;;4163439;28;20044;-70
2021/05/15 01:56:31;;;;;;;2.80;1.50;;;16.30;59.30;;;;;;4170429;28;20056;-70
2021/05/15 01:58:33;;;;;;;3.53;1.40;;;16.30;59.30;;;;;;4162593;28;20547;-69
2021/05/15 02:00:35;;;;;;;2.70;1.38;;;16.30;59.10;;;;;;4168474;28;20013;-69
2021/05/15 02:02:37;;;;;;;1.67;1.10;;;16.30;59.00;;;;;;4167694;28;20056;-70
2021/05/15 02:04:39;;;;;;;2.83;1.30;;;16.40;59.00;;;;;;4174064;28;20021;-70
2021/05/15 02:06:41;;;;;;;2.38;1.13;;;16.40;58.90;;;;;;4169940;28;20163;-68
2021/05/15 02:08:48;;;;;;;3.75;1.52;;;16.40;58.70;;;;;;4172211;28;20037;-70
2021/05/15 02:10:53;;;;;;;4.13;1.38;;;16.40;58.60;;;;;;4169870;28;20302;-70
2021/05/15 02:12:55;;;;;;;2.40;1.48;;;16.40;58.60;;;;;;4171322;28;20052;-70
2021/05/15 02:14:57;;;;;;;2.97;1.40;;;16.40;58.50;;;;;;4165691;28;20406;-69
2021/05/15 02:16:59;;;;;;;2.97;1.50;;;16.40;58.50;;;;;;4169024;28;20056;-70
2021/05/15 02:19:01;;;;;;;2.03;1.05;;;16.40;58.40;;;;;;4169301;28;20517;-69
2021/05/15 02:21:04;;;;;;;5.95;1.63;;;16.40;58.40;;;;;;4165918;28;20079;-69
2021/05/15 02:23:06;;;;;;;2.45;1.50;;;16.40;58.40;;;;;;4169858;28;20501;-70
2021/05/15 02:25:09;;;;;;;3.42;1.35;;;16.40;58.40;;;;;;4171652;28;20201;-69
2021/05/15 02:27:11;;;;;;;3.03;1.30;;;16.40;58.30;;;;;;4173316;28;20036;-68
2021/05/15 02:29:13;;;;;;;3.22;1.33;;;16.40;58.10;;;;;;4167644;28;20048;-70
2021/05/15 02:31:15;;;;;;;1.95;1.20;;;16.40;58.00;;;;;;4179247;28;20020;-68
2021/05/15 02:33:18;;;;;;;2.08;1.13;;;16.40;58.00;;;;;;4173381;28;20143;-70
2021/05/15 02:35:20;;;;;;;1.77;1.10;;;16.40;58.00;;;;;;4176196;28;20058;-69
2021/05/15 02:37:22;;;;;;;2.50;1.20;;;16.40;57.90;;;;;;4170120;28;20037;-70
2021/05/15 02:39:24;;;;;;;2.00;1.30;;;16.50;57.90;;;;;;4170442;28;20059;-69
2021/05/15 02:41:26;;;;;;;2.45;1.35;;;16.50;57.90;;;;;;4171984;28;20033;-68
2021/05/15 02:43:28;;;;;;;1.48;1.00;;;16.50;57.80;;;;;;4174384;28;20400;-69
2021/05/15 02:45:30;;;;;;;2.70;1.30;;;16.40;57.80;;;;;;4169737;28;20071;-68
2021/05/15 02:47:32;;;;;;;2.22;1.00;;;16.40;57.80;;;;;;4170676;28;20083;-69
2021/05/15 02:49:35;;;;;;;2.15;1.00;;;16.40;57.80;;;;;;4173837;28;20474;-67
2021/05/15 02:51:37;;;;;;;1.60;1.00;;;16.40;57.80;;;;;;4177563;28;20386;-68
2021/05/15 02:53:39;;;;;;;2.20;1.30;;;16.50;57.70;;;;;;4170511;28;20070;-68
2021/05/15 02:55:41;;;;;;;2.00;0.93;;;16.40;57.60;;;;;;4174636;28;20052;-69
2021/05/15 02:57:44;;;;;;;2.35;1.30;;;16.50;57.40;;;;;;4175387;28;20020;-70
2021/05/15 02:59:46;;;;;;;2.25;1.20;;;16.50;57.40;;;;;;4167623;28;20037;-68
2021/05/15 03:01:48;;;;;;;1.63;0.80;;;16.50;57.30;;;;;;4168268;28;20308;-68
2021/05/15 03:03:51;;;;;;;1.85;1.20;;;16.50;57.30;;;;;;4177225;28;20042;-69
2021/05/15 03:05:53;;;;;;;0.77;0.77;;;16.50;57.10;;;;;;4174927;28;20435;-69
2021/05/15 03:07:55;;;;;;;1.25;1.00;;;16.50;57.10;;;;;;4167417;28;20037;-68
2021/05/15 03:09:57;;;;;;;1.40;0.90;;;16.50;57.00;;;;;;4172721;28;20393;-69
2021/05/15 03:11:59;;;;;;;0.95;0.73;;;16.40;56.90;;;;;;4173319;28;20559;-68
2021/05/15 03:14:02;;;;;;;0.80;0.80;;;16.50;56.90;;;;;;4175041;28;20549;-68
2021/05/15 03:16:04;;;;;;;1.05;0.90;;;16.50;56.80;;;;;;4172766;28;20356;-69
2021/05/15 03:18:06;;;;;;;1.55;1.17;;;16.50;56.80;;;;;;4177141;28;20045;-68
2021/05/15 03:20:12;;;;;;;1.27;1.02;;;16.60;56.70;;;;;;4168120;28;20040;-69
2021/05/15 03:22:14;;;;;;;0.73;0.70;;;16.60;56.50;;;;;;4170657;28;20079;-68
2021/05/15 03:24:16;;;;;;;1.05;0.90;;;16.60;56.50;;;;;;4169437;28;20485;-67
2021/05/15 03:26:18;;;;;;;1.67;0.98;;;16.50;56.40;;;;;;4169585;28;20219;-65
2021/05/15 03:28:20;;;;;;;1.55;1.00;;;16.50;56.30;;;;;;4173837;28;20111;-66
2021/05/15 03:30:23;;;;;;;2.03;1.05;;;16.60;56.40;;;;;;4174316;28;20113;-65
2021/05/15 03:32:25;;;;;;;2.45;1.00;;;16.60;56.40;;;;;;4171545;28;20437;-65
2021/05/15 03:34:27;;;;;;;0.93;0.70;;;16.60;56.20;;;;;;4167638;28;20032;-66
2021/05/15 03:36:29;;;;;;;1.10;0.80;;;16.60;56.00;;;;;;4172697;28;20386;-65
2021/05/15 03:38:32;;;;;;;1.02;0.90;;;16.60;55.90;;;;;;4167061;28;20385;-64
2021/05/15 03:40:34;;;;;;;1.25;0.93;;;16.70;55.80;;;;;;4170384;28;20116;-64
2021/05/15 03:42:37;;;;;;;1.38;1.15;;;16.70;56.30;;;;;;4165311;28;20125;-64
2021/05/15 03:44:40;;;;;;;0.85;0.80;;;16.70;55.40;;;;;;4171157;28;20070;-64
2021/05/15 03:46:42;;;;;;;1.27;0.90;;;16.70;55.30;;;;;;4164624;28;20028;-64
2021/05/15 03:48:44;;;;;;;0.73;0.73;;;16.70;55.20;;;;;;4174833;28;20028;-66
2021/05/15 03:50:50;;;;;;;1.42;0.88;;;16.80;55.50;;;;;;4163971;28;20063;-65
2021/05/15 03:52:53;;;;;;;0.98;0.88;;;16.80;55.20;;;;;;4166475;28;21041;-64
2021/05/15 03:54:55;;;;;;;1.17;0.80;;;16.80;55.00;;;;;;4165011;28;20040;-64
2021/05/15 03:56:57;;;;;;;0.82;0.77;;;16.80;54.90;;;;;;4161407;28;20102;-64
2021/05/15 03:58:59;;;;;;;1.02;0.70;;;16.90;55.00;;;;;;4165413;28;20048;-64
2021/05/15 04:01:01;;;;;;;0.70;0.70;;;16.90;54.90;;;;;;4171559;28;20463;-64
2021/05/15 04:03:04;;;;;;;0.82;0.77;;;16.90;54.50;;;;;;4166300;28;20470;-64
2021/05/15 04:05:07;;;;;;;2.53;1.33;;;17.00;54.50;;;;;;4168256;28;20037;-63
2021/05/15 04:07:09;;;;;;;2.25;1.00;;;17.00;54.50;;;;;;4167120;28;20266;-63
2021/05/15 04:09:11;;;;;;;0.63;0.60;;;17.10;54.50;;;;;;4162913;28;20033;-63
2021/05/15 04:11:13;;;;;;;1.55;1.10;;;17.10;54.30;;;;;;4163730;28;20053;-65
2021/05/15 04:14:02;;;;;;;1.13;0.80;;;17.10;54.10;;;;;;4167071;28;20021;-65
2021/05/15 04:15:56;;;;;;;1.17;0.80;;;17.20;54.00;;;;;;4165603;28;20041;-65
2021/05/15 04:18:06;;;;;;;1.30;0.85;;;17.20;54.20;;;;;;4159888;28;20039;-64
2021/05/15 04:20:09;;;;;;;0.93;0.88;;;17.20;53.80;;;;;;4161878;28;20040;-65
2021/05/15 04:22:11;;;;;;;0.93;0.93;;;17.20;53.90;;;;;;4163502;28;20044;-65
2021/05/15 04:24:13;;;;;;;1.70;1.00;;;17.30;53.70;;;;;;4168959;28;20473;-65
2021/05/15 04:26:17;;;;;;;1.10;0.90;;;17.30;53.70;;;;;;4159821;28;20055;-63
2021/05/15 04:28:19;;;;;;;2.00;1.00;;;17.30;53.50;;;;;;4169545;28;20025;-64
2021/05/15 04:30:22;;;;;;;1.20;1.10;;;17.30;53.50;;;;;;4166276;28;20044;-65
2021/05/15 04:32:24;;;;;;;0.90;0.80;;;17.30;53.40;;;;;;4162611;28;20048;-65
2021/05/15 04:34:30;;;;;;;2.28;1.23;;;17.30;53.10;;;;;;4163390;28;20037;-65
2021/05/15 04:36:32;;;;;;;1.13;0.90;;;17.40;52.90;;;;;;4161670;28;20056;-64
2021/05/15 04:38:34;;;;;;;2.28;1.35;;;17.40;52.90;;;;;;4162952;28;20032;-63
2021/05/15 04:40:36;;;;;;;2.17;1.27;;;17.50;52.70;;;;;;4168241;28;20107;-67
2021/05/15 04:42:39;;;;;;;3.65;1.60;;;17.50;52.50;;;;;;4166450;28;20036;-66
2021/05/15 04:44:41;;;;;;;5.80;2.37;;;17.60;52.60;;;;;;4167422;28;20029;-66
2021/05/15 04:46:43;;;;;;;7.15;2.85;;;17.60;52.60;;;;;;4161920;28;20029;-66
2021/05/15 04:48:45;;;;;;;6.93;2.80;;;17.60;52.60;;;;;;4167444;28;20450;-64
2021/05/15 04:50:47;;;;;;;5.90;2.95;;;17.70;52.60;;;;;;4163319;28;20132;-66
2021/05/15 04:52:51;;;;;;;9.40;3.45;;;17.70;52.50;;;;;;4162362;28;20098;-65
2021/05/15 04:54:53;;;;;;;;;;;17.80;52.50;;;;;;4170184;28;20124;-64
2021/05/15 04:56:55;;;;;;;9.95;3.50;;;17.80;52.50;;;;;;4164517;28;19958;-66
2021/05/15 04:58:57;;;;;;;6.28;3.40;;;17.80;52.30;;;;;;4165572;28;20033;-67
2021/05/15 05:01:00;;;;;;;6.43;3.60;;;17.90;52.40;;;;;;4167644;28;20029;-64
2021/05/15 05:03:02;;;;;;;7.70;3.60;;;17.90;52.30;;;;;;4167105;28;20049;-65
2021/05/15 05:05:04;;;;;;;7.88;3.50;;;17.90;52.50;;;;;;4169823;28;20029;-64
2021/05/15 05:07:07;;;;;;;5.45;3.17;;;17.90;52.50;;;;;;4176449;28;20031;-64
2021/05/15 05:09:09;;;;;;;8.32;3.60;;;17.90;52.50;;;;;;4167808;28;20136;-65
2021/05/15 05:11:11;;;;;;;9.48;4.15;;;17.90;52.50;;;;;;4169968;28;20112;-66
2021/05/15 05:13:14;;;;;;;6.30;3.40;;;18.00;52.50;;;;;;4170579;28;20102;-64
2021/05/15 05:15:16;;;;;;;6.68;3.28;;;18.00;52.60;;;;;;4169455;28;20021;-65
2021/05/15 05:17:18;;;;;;;6.40;3.33;;;18.00;52.60;;;;;;4161268;28;20033;-64
2021/05/15 05:19:20;;;;;;;5.55;3.13;;;18.00;52.50;;;;;;4164129;28;20099;-64
2021/05/15 05:21:22;;;;;;;6.85;3.63;;;18.00;52.50;;;;;;4162384;28;20447;-64
2021/05/15 05:23:25;;;;;;;5.88;3.10;;;18.00;52.50;;;;;;4162767;28;20505;-65
2021/05/15 05:25:27;;;;;;;5.37;3.20;;;18.00;52.40;;;;;;4164126;28;20055;-64
2021/05/15 05:27:29;;;;;;;4.68;2.35;;;18.00;52.40;;;;;;4160240;28;20266;-64
2021/05/15 05:29:31;;;;;;;5.75;2.70;;;18.00;52.30;;;;;;4163421;28;20047;-62
2021/05/15 05:31:34;;;;;;;5.35;2.72;;;18.00;52.30;;;;;;4167452;28;20029;-64
2021/05/15 05:33:37;;;;;;;4.85;2.88;;;18.00;52.20;;;;;;4172619;28;20103;-65
2021/05/15 05:35:40;;;;;;;4.78;2.45;;;18.00;52.40;;;;;;4169664;28;20064;-66
2021/05/15 05:37:43;;;;;;;6.32;2.75;;;17.90;52.30;;;;;;4166719;28;20063;-66
2021/05/15 05:39:45;;;;;;;3.75;2.03;;;17.90;52.30;;;;;;4169356;28;20097;-66
2021/05/15 05:41:50;;;;;;;7.80;2.55;;;17.90;52.30;;;;;;4166855;28;20120;-67
2021/05/15 05:43:53;;;;;;;4.70;2.30;;;17.90;52.20;;;;;;4164133;28;20100;-65
2021/05/15 05:45:55;;;;;;;5.45;2.08;;;17.90;52.30;;;;;;4156404;28;20039;-65
2021/05/15 05:47:57;;;;;;;6.20;2.40;;;17.90;52.40;;;;;;4165123;28;20112;-65
2021/05/15 05:49:59;;;;;;;3.97;1.75;;;17.80;52.40;;;;;;4164675;28;20711;-66
2021/05/15 05:52:01;;;;;;;4.45;2.30;;;17.80;52.20;;;;;;4163138;28;20159;-65
2021/05/15 05:54:04;;;;;;;4.10;2.33;;;17.80;52.20;;;;;;4166254;28;20182;-65
2021/05/15 05:56:06;;;;;;;4.28;2.00;;;17.80;52.10;;;;;;4162630;28;20033;-66
2021/05/15 05:58:08;;;;;;;4.30;1.80;;;17.80;52.20;;;;;;4162695;28;20197;-66
2021/05/15 06:00:11;;;;;;;3.17;1.90;;;17.80;52.10;;;;;;4162230;28;20044;-66
2021/05/15 06:02:13;;;;;;;4.18;1.90;;;17.70;51.90;;;;;;4164950;28;20094;-67
2021/05/15 06:04:15;;;;;;;3.08;2.00;;;17.70;51.80;;;;;;4163567;28;20032;-66
2021/05/15 06:06:17;;;;;;;5.22;1.83;;;17.70;51.90;;;;;;4164115;28;20358;-66
2021/05/15 06:08:20;;;;;;;3.63;2.00;;;17.70;51.90;;;;;;4161288;28;20051;-66
2021/05/15 06:10:22;;;;;;;4.25;1.85;;;17.70;51.90;;;;;;4168411;28;20563;-65
2021/05/15 06:12:24;;;;;;;2.72;1.50;;;17.70;52.00;;;;;;4170613;28;20538;-67
2021/05/15 06:14:26;;;;;;;3.17;1.70;;;17.70;51.90;;;;;;4167178;28;20130;-66
2021/05/15 06:16:28;;;;;;;3.97;2.00;;;17.70;52.00;;;;;;4168289;28;20511;-65
2021/05/15 06:18:30;;;;;;;5.18;2.00;;;17.60;52.10;;;;;;4171714;28;20344;-65
2021/05/15 06:20:33;;;;;;;3.38;1.65;;;17.60;52.60;;;;;;4171866;28;20537;-66
2021/05/15 06:22:35;;;;;;;3.33;1.95;;;17.60;52.20;;;;;;4167491;28;20152;-66
2021/05/15 06:24:39;;;;;;;3.17;1.60;;;17.60;52.30;;;;;;4173071;28;20040;-66
2021/05/15 06:26:41;;;;;;;3.53;1.70;;;17.60;52.10;;;;;;4163666;28;20060;-65
2021/05/15 06:28:43;;;;;;;3.28;1.55;;;17.60;52.30;;;;;;4170041;28;20033;-64
2021/05/15 06:30:46;;;;;;;2.42;1.60;;;17.60;52.40;;;;;;4172901;28;20111;-65
2021/05/15 06:32:49;;;;;;;3.38;1.73;;;17.60;52.40;;;;;;4171267;28;20160;-66
2021/05/15 06:34:51;;;;;;;2.80;1.73;;;17.60;52.60;;;;;;4169895;28;20078;-65
2021/05/15 06:36:53;;;;;;;3.47;1.90;;;17.60;52.50;;;;;;4180882;28;20587;-66
2021/05/15 06:38:56;;;;;;;3.40;1.63;;;17.50;52.50;;;;;;4161498;28;20056;-65
2021/05/15 06:40:58;;;;;;;2.42;1.50;;;17.50;52.50;;;;;;4167904;28;20128;-66
2021/05/15 06:43:00;;;;;;;3.17;1.80;;;17.50;52.50;;;;;;4171034;28;20130;-66
2021/05/15 06:45:03;;;;;;;3.35;1.92;;;17.50;52.30;;;;;;4168339;28;20561;-66
2021/05/15 06:47:05;;;;;;;5.35;3.03;;;17.50;52.10;;;;;;4170081;28;20316;-66
2021/05/15 06:49:08;;;;;;;5.85;4.50;;;17.50;51.70;;;;;;4169776;28;20033;-67
2021/05/15 06:51:10;;;;;;;7.20;5.65;;;17.40;51.50;;;;;;4167250;28;20439;-65
2021/05/15 06:53:12;;;;;;;4.40;2.88;;;17.40;51.50;;;;;;4170134;28;20044;-65
2021/05/15 06:55:14;;;;;;;5.38;2.95;;;17.40;52.20;;;;;;4170671;28;20447;-66
2021/05/15 06:57:17;;;;;;;6.57;3.58;;;17.40;52.40;;;;;;4166633;28;20110;-67
2021/05/15 06:59:19;;;;;;;5.72;3.70;;;17.40;52.30;;;;;;4172999;28;20088;-64
2021/05/15 07:01:21;;;;;;;6.97;3.30;;;17.40;52.40;;;;;;4170191;28;20781;-66
2021/05/15 07:03:23;;;;;;;5.60;3.83;;;17.40;52.40;;;;;;4171226;28;20045;-66
2021/05/15 07:05:26;;;;;;;7.32;3.80;;;17.40;52.40;;;;;;4167985;28;20105;-67
2021/05/15 07:07:28;;;;;;;6.15;3.85;;;17.30;52.40;;;;;;4164508;28;20490;-65
2021/05/15 07:09:30;;;;;;;4.50;3.30;;;17.30;52.30;;;;;;4170262;28;20095;-67
2021/05/15 07:11:32;;;;;;;4.80;3.17;;;17.30;52.40;;;;;;4177172;28;20259;-66
2021/05/15 07:13:34;;;;;;;4.95;3.28;;;17.30;52.40;;;;;;4174718;28;20035;-67
2021/05/15 07:15:36;;;;;;;4.30;2.80;;;17.30;52.20;;;;;;4171320;28;20017;-66
2021/05/15 07:17:38;;;;;;;7.65;3.28;;;17.30;52.40;;;;;;4174038;28;20167;-67
2021/05/15 07:19:41;;;;;;;4.30;3.00;;;17.30;52.10;;;;;;4174884;28;20016;-66
2021/05/15 07:21:43;;;;;;;5.32;3.08;;;17.30;52.40;;;;;;4169385;28;20638;-67
2021/05/15 07:23:48;;;;;;;6.43;2.80;;;17.30;52.40;;;;;;4169988;28;20053;-67
2021/05/15 07:25:50;;;;;;;4.07;2.83;;;17.30;52.70;;;;;;4166417;28;20491;-67
2021/05/15 07:27:52;;;;;;;4.97;3.05;;;17.30;52.70;;;;;;4167357;28;20116;-66
2021/05/15 07:29:55;;;;;;;4.78;2.92;;;17.30;53.00;;;;;;4165188;28;20100;-66
2021/05/15 07:31:57;;;;;;;4.50;2.80;;;17.30;53.20;;;;;;4165641;28;20056;-67
2021/05/15 07:34:01;;;;;;;3.78;2.45;;;17.30;53.40;;;;;;4165554;28;20286;-66
2021/05/15 07:36:03;;;;;;;16.35;6.38;;;17.30;53.40;;;;;;4176088;28;20044;-66
2021/05/15 07:38:05;;;;;;;31.73;10.95;;;17.30;53.50;;;;;;4168413;28;20044;-66
2021/05/15 07:40:08;;;;;;;31.40;9.63;;;17.30;53.60;;;;;;4172695;28;20037;-66
2021/05/15 07:42:10;;;;;;;21.67;8.17;;;17.30;54.40;;;;;;4167905;28;20124;-67
2021/05/15 07:44:12;;;;;;;16.77;7.28;;;17.30;54.00;;;;;;4170454;28;20143;-65
2021/05/15 07:46:15;;;;;;;20.02;6.95;;;17.30;54.10;;;;;;4169064;28;20078;-66
2021/05/15 07:48:18;;;;;;;13.10;6.00;;;17.30;54.20;;;;;;4169048;28;20068;-67
2021/05/15 07:50:20;;;;;;;20.63;6.60;;;17.30;54.20;;;;;;4168473;28;20071;-66
2021/05/15 07:52:22;;;;;;;14.25;5.95;;;17.30;54.10;;;;;;4171124;28;20032;-66
2021/05/15 07:54:24;;;;;;;13.88;5.57;;;17.20;54.10;;;;;;4166896;28;20058;-66
2021/05/15 07:56:26;;;;;;;14.70;5.15;;;17.30;54.00;;;;;;4170141;28;20470;-66
2021/05/15 07:58:29;;;;;;;11.55;5.25;;;17.20;54.10;;;;;;4169846;28;20032;-67
2021/05/15 08:00:31;;;;;;;11.30;4.68;;;17.20;53.90;;;;;;4175180;28;20025;-66
2021/05/15 08:02:34;;;;;;;9.70;4.10;;;17.20;53.90;;;;;;4170007;28;20459;-67
2021/05/15 08:04:37;;;;;;;11.15;4.30;;;17.20;53.80;;;;;;4173085;28;20372;-66
2021/05/15 08:06:39;;;;;;;10.05;4.25;;;17.20;53.90;;;;;;4174470;28;20465;-66
2021/05/15 08:08:41;;;;;;;8.75;4.10;;;17.20;54.00;;;;;;4166411;28;20041;-66
2021/05/15 08:10:43;;;;;;;8.93;4.03;;;17.20;54.10;;;;;;4176899;28;20024;-66
2021/05/15 08:12:45;;;;;;;9.85;3.95;;;17.20;54.20;;;;;;4170615;28;20071;-66
2021/05/15 08:14:47;;;;;;;6.00;3.30;;;17.20;54.20;;;;;;4169712;28;20450;-66
2021/05/15 08:16:49;;;;;;;8.23;3.60;;;17.20;54.20;;;;;;4166500;28;20045;-66
2021/05/15 08:18:52;;;;;;;7.47;3.35;;;17.20;54.20;;;;;;4171239;28;20445;-66
2021/05/15 08:20:54;;;;;;;6.18;3.10;;;17.20;54.10;;;;;;4171556;28;20529;-66
2021/05/15 08:22:56;;;;;;;6.20;2.88;;;17.20;54.10;;;;;;4168276;28;20147;-66
2021/05/15 08:25:01;;;;;;;5.43;3.38;;;17.20;54.10;;;;;;4169797;28;20403;-66
2021/05/15 08:27:03;;;;;;;6.20;2.88;;;17.20;54.10;;;;;;4167063;28;20471;-67
2021/05/15 08:29:08;;;;;;;7.55;2.90;;;17.20;54.10;;;;;;4170309;28;20463;-67
2021/05/15 08:31:10;;;;;;;6.22;2.97;;;17.10;54.00;;;;;;4167452;28;20583;-65
2021/05/15 08:33:12;;;;;;;6.43;2.50;;;17.20;54.00;;;;;;4169251;28;20033;-65
2021/05/15 08:35:15;;;;;;;5.78;2.60;;;17.10;53.90;;;;;;4166577;28;20037;-65
2021/05/15 08:37:17;;;;;;;6.32;2.65;;;17.20;53.90;;;;;;4170119;28;20131;-65
2021/05/15 08:39:19;;;;;;;4.78;2.10;;;17.20;53.90;;;;;;4169184;28;20439;-65
2021/05/15 08:41:21;;;;;;;6.30;2.63;;;17.10;53.80;;;;;;4165526;28;20045;-65
2021/05/15 08:43:26;;;;;;;4.80;2.33;;;17.10;53.90;;;;;;4169464;28;20049;-66
2021/05/15 08:45:28;;;;;;;4.75;2.15;;;17.10;53.80;;;;;;4168179;28;20034;-66
2021/05/15 08:47:31;;;;;;;3.97;2.00;;;17.10;53.80;;;;;;4166503;28;20569;-65
2021/05/15 08:49:36;;;;;;;3.90;2.20;;;17.10;53.80;;;;;;4171699;28;20020;-66
2021/05/15 08:51:39;;;;;;;5.93;3.00;;;17.10;53.80;;;;;;4172556;28;20055;-65
2021/05/15 08:53:41;;;;;;;5.82;2.30;;;17.10;53.90;;;;;;4166724;28;20047;-61
2021/05/15 08:55:48;;;;;;;4.60;2.47;;;17.10;54.00;;;;;;4170388;28;20546;-67
2021/05/15 08:57:51;;;;;;;5.35;1.90;;;17.10;54.20;;;;;;4165684;28;20302;-67
2021/05/15 08:59:53;;;;;;;4.45;2.42;;;17.10;54.50;;;;;;4161207;28;20177;-68
2021/05/15 09:01:56;;;;;;;5.40;2.13;;;17.10;54.70;;;;;;4150869;28;20523;-65
2021/05/15 09:03:58;;;;;;;7.13;2.03;;;17.10;55.00;;;;;;4151908;28;20093;-67
2021/05/15 09:06:00;;;;;;;6.50;1.85;;;17.10;55.30;;;;;;4153380;28;21155;-65
2021/05/15 09:08:06;;;;;;;6.65;2.10;;;17.10;55.40;;;;;;4162389;28;20033;-68
2021/05/15 09:10:09;;;;;;;8.23;2.00;;;17.10;55.40;;;;;;4164494;28;20436;-67
2021/05/15 09:12:11;;;;;;;4.47;2.10;;;17.10;55.50;;;;;;4166984;28;20032;-66
2021/05/15 09:14:18;;;;;;;4.88;2.20;;;17.10;55.60;;;;;;4162116;28;20513;-66
2021/05/15 09:16:21;;;;;;;5.72;2.28;;;17.20;55.70;;;;;;4175262;28;20671;-68
2021/05/15 09:18:40;;;;;;;5.32;2.30;;;17.20;55.70;;;;;;4173075;28;20045;-65
2021/05/15 09:20:43;;;;;;;4.88;2.10;;;17.20;55.70;;;;;;4176127;28;20037;-66
2021/05/15 09:22:45;;;;;;;7.32;2.30;;;17.20;55.80;;;;;;4175627;28;20629;-66
2021/05/15 09:24:47;;;;;;;9.00;2.15;;;17.20;56.10;;;;;;4170008;28;20021;-68
2021/05/15 09:26:52;;;;;;;4.53;2.13;;;17.20;56.20;;;;;;4169963;28;20544;-67
2021/05/15 09:28:57;;;;;;;16.00;2.50;;;17.20;56.30;;;;;;4162066;28;20151;-68
2021/05/15 09:31:10;;;;;;;8.25;2.22;;;17.20;56.30;;;;;;4170889;28;20094;-65
2021/05/15 09:33:14;;;;;;;5.75;2.38;;;17.30;56.20;;;;;;4165659;28;20495;-68
2021/05/15 09:35:25;;;;;;;3.72;1.95;;;17.20;56.10;;;;;;4164837;28;20071;-66
2021/05/15 09:37:41;;;;;;;4.88;2.40;;;17.20;56.20;;;;;;4168223;28;20430;-62
2021/05/15 09:39:43;;;;;;;6.53;2.00;;;17.30;56.10;;;;;;4169494;28;20095;-62
2021/05/15 09:42:01;;;;;;;6.75;2.20;;;17.30;56.10;;;;;;4169238;28;20136;-64
2021/05/15 09:44:06;;;;;;;6.35;2.75;;;17.30;56.10;;;;;;4162950;28;20403;-67
2021/05/15 09:46:09;;;;;;;6.68;2.83;;;17.30;56.20;;;;;;4168251;28;20043;-63
2021/05/15 09:48:35;;;;;;;5.75;2.25;;;17.30;56.70;;;;;;4163749;28;20111;-65
2021/05/15 09:50:39;;;;;;;6.50;2.60;;;17.30;56.10;;;;;;4162653;28;20635;-69
2021/05/15 09:52:41;;;;;;;6.88;2.90;;;17.30;56.00;;;;;;4157534;28;21369;-62
2021/05/15 09:54:44;;;;;;;7.13;2.60;;;17.30;56.00;;;;;;4164536;28;20035;-61
2021/05/15 09:57:23;;;;;;;11.52;2.58;;;17.30;56.10;;;;;;4156889;28;20098;-62
2021/05/15 09:59:30;;;;;;;4.13;2.22;;;17.30;56.10;;;;;;4112181;28;20488;-62
2021/05/15 10:01:44;;;;;;;5.75;2.47;;;17.20;56.00;;;;;;4141221;28;20036;-63
2021/05/15 10:03:48;;;;;;;4.35;2.40;;;17.30;55.90;;;;;;4170168;28;20047;-62
2021/05/15 10:06:13;;;;;;;4.55;2.30;;;17.20;55.80;;;;;;4163262;28;20041;-65
2021/05/15 10:08:15;;;;;;;4.55;2.50;;;17.30;56.10;;;;;;4164756;28;20049;-64
2021/05/15 10:10:17;;;;;;;12.40;2.88;;;17.30;56.20;;;;;;4166015;28;20521;-63
2021/05/15 10:12:20;;;;;;;11.45;3.17;;;17.30;56.20;;;;;;4164238;28;20455;-62
2021/05/15 10:14:23;;;;;;;8.75;2.20;;;17.30;56.10;;;;;;4168476;28;20103;-63
2021/05/15 10:16:27;;;;;;;4.50;1.95;;;17.30;55.80;;;;;;4163767;28;20033;-62
2021/05/15 10:18:29;;;;;;;;;;;17.20;55.40;;;;;;4171571;28;20036;-64
2021/05/15 10:20:31;;;;;;;6.72;2.20;;;17.20;55.30;;;;;;4163186;28;20099;-67
2021/05/15 10:22:40;;;;;;;7.97;2.70;;;17.20;55.30;;;;;;4166133;28;20803;-66
2021/05/15 10:24:49;;;;;;;7.75;2.55;;;17.20;56.20;;;;;;4162281;28;20035;-67
2021/05/15 10:27:06;;;;;;;5.63;2.30;;;17.20;56.50;;;;;;4159627;28;20509;-68
2021/05/15 10:29:08;;;;;;;5.97;2.20;;;17.20;56.80;;;;;;4163245;28;20156;-65
2021/05/15 10:31:15;;;;;;;5.68;2.33;;;17.20;56.90;;;;;;4164308;28;20047;-64
2021/05/15 10:33:17;;;;;;;7.68;2.70;;;17.20;57.00;;;;;;4165981;28;20261;-65
2021/05/15 10:35:28;;;;;;;16.85;2.35;;;17.20;57.10;;;;;;4162582;28;20152;-63
2021/05/15 10:37:35;;;;;;;4.47;2.15;;;17.30;57.10;;;;;;4158725;28;20398;-64
2021/05/15 10:39:37;;;;;;;4.68;2.40;;;17.30;57.10;;;;;;4159572;28;20033;-64
2021/05/15 10:41:46;;;;;;;7.43;2.38;;;17.30;57.00;;;;;;4162317;28;20296;-64